Dickinson, AL (36436)

3:47 PM CDT on July 30, 2014 (GMT -0500)
KALFRISC2 Elev 70 ft | 31.58 °N, 87.49 °W | Change Station

Current weather conditions updated 1 minute ago

Clear
Clear
86.5 °F
Feels Like 87 °F
N
4.0
Wind Variable Wind from North
Gusts 7.0 mph

Today is forecast to be Cooler than yesterday.

Today
High -- | Low -- °F
--% Chance of Precip.
Yesterday
High -- | Low -- °F
Precip. -- in
6:05 AM 7:48 PM
Waxing Crescent, 13% visible
Pressure 30.02 in
Visibility 10.0 miles
Clouds Clear
Heat Index 87 °F
Dew Point 62 °F
Humidity 44%
Rainfall 0.00 in
Snow Depth Not available.
UV 11 out of 12
Pollen 4.20 out of 12
Air Quality Not available.
Flu Activity Not available.
METAR KGZH 301953Z AUTO 34008KT 10SM CLR 31/12 A3002 RMK AO2 SLP164 T03060122

More Conditions Fewer Conditions

Pressure 30.02 in
Visibility 10.0 miles
Clouds Clear
Heat Index 87 °F
Dew Point 62 °F
Humidity 44%
Rainfall 0.00 in
Snow Depth Not available.
UV 11 out of 12
Pollen 4.20 out of 12
Air Quality Not available.
Flu Activity Not available.
METAR KGZH 301953Z AUTO 34008KT 10SM CLR 31/12 A3002 RMK AO2 SLP164 T03060122

More Conditions Fewer Conditions

10-Day Weather Forecast

Almanac

Astronomy

Jul. 30, 2014 Rise Set
Actual Time 6:05 AM CDT 7:48 PM CDT
Civil Twilight 5:38 AM CDT 8:15 PM CDT
Nautical Twilight 5:06 AM CDT 8:47 PM CDT
Astronomical Twilight 4:32 AM CDT 9:20 PM CDT
Moon 9:20 AM CDT 9:48 PM CDT
Length of Visible Light 14h 36m
Length of Day
13h 43m
Tomorrow will be 1m 25s shorter.
Waxing Crescent, 13% of the Moon is Illuminated
Today
Waxing Crescent
Aug 3
First Quarter
Aug 10
Full
Aug 17
Last Quarter
Aug 25
New

Today's Extremes

State Highs State Lows

Community

WunderPhotos

Upload Photos

1,739,185 photos uploaded!

WunderBlogs® & News

By Dr. Jeff Masters
Director of Meteorology, Weather Underground
By Kari Strenfel
Meteorologist, Weather Underground
By Christopher C. Burt
Weather Historian, Weather Underground
July 30, 2014
July 30, 2014
July 30, 2014

Nearby

Snow Depth

Station Depth Elevation
No new snow has been reported.

Earthquake Activity

City Distance Mag. Time & Date
No recent earthquake activity has been reported nearby.
Minimum magnitude displayed is 2.5.

Coastal Water Temperatures

Place Temperature
No Stations Reporting

Nearby Weather Stations

Station Location Temp. Heat Index Dew Point Humidity Wind Precip. Elev Updated Type
HCN THOMASVILLE 2 S AL , Thomasville, AL 82 °F 80 °F - - North  at  - 0.00 in / hr 350 ft 2:40 PM CDT MADIS
Perdue Hill, AL 86.5 °F 87 °F 62 °F 44% North  at  4.0 mph 0.00 in / hr 70 ft 3:45 PM CDT Normal
Belview Circle, Jackson, AL 87.0 °F 88 °F 64 °F 47% East  at  0.0 mph 0.00 in / hr 381 ft 3:47 PM CDT Rapid Fire
Jackson, AL, Jackson, AL 83.6 °F 84 °F 60 °F 45% NW  at  0.0 mph 0.00 in / hr 53 ft 3:46 PM CDT Rapid Fire

Show More Stations Show Fewer Stations